Time;durP1;ratioP1;P1;durP2;ratioP2;P2;SDS_P1;SDS_P2;PMS_P1;PMS_P2;Temp;Humidity;BMP_temperature;BMP_pressure;BME280_temperature;BME280_humidity;BME280_pressure;Samples;Min_cycle;Max_cycle;Signal;HPM_P1;HPM_P2
2021/12/06 00:02:27;;;;;;;34.80;19.48;;;3.70;99.90;;;;;;5029515;28;20129;-56
2021/12/06 00:04:53;;;;;;;36.13;18.52;;;3.70;99.90;;;;;;5023173;28;20048;-56
2021/12/06 00:07:21;;;;;;;36.42;20.15;;;3.60;99.90;;;;;;5029845;28;20444;-56
2021/12/06 00:09:47;;;;;;;38.13;20.23;;;3.60;99.90;;;;;;5020890;28;20041;-56
2021/12/06 00:12:14;;;;;;;37.28;19.67;;;3.70;99.90;;;;;;5022402;28;20038;-55
2021/12/06 00:14:41;;;;;;;36.40;20.25;;;3.60;99.90;;;;;;5025390;28;20164;-56
2021/12/06 00:17:10;;;;;;;38.35;21.00;;;3.60;99.90;;;;;;5026527;28;20052;-55
2021/12/06 00:19:36;;;;;;;37.58;20.65;;;3.60;99.90;;;;;;5029826;28;20033;-55
2021/12/06 00:22:05;;;;;;;39.22;21.70;;;3.50;99.90;;;;;;5028701;28;20030;-55
2021/12/06 00:24:31;;;;;;;39.42;22.20;;;3.50;99.90;;;;;;5026500;28;20112;-56
2021/12/06 00:26:57;;;;;;;41.60;22.77;;;3.50;99.90;;;;;;5028050;28;20045;-56
2021/12/06 00:29:23;;;;;;;38.95;21.52;;;3.50;99.90;;;;;;5026245;28;20442;-54
2021/12/06 00:31:50;;;;;;;35.20;19.13;;;3.50;99.90;;;;;;5026599;28;20125;-54
2021/12/06 00:34:17;;;;;;;39.35;21.33;;;3.60;99.90;;;;;;5030536;28;20041;-53
2021/12/06 00:36:52;;;;;;;35.90;20.35;;;3.50;99.90;;;;;;5024270;28;20048;-53
2021/12/06 00:39:19;;;;;;;37.30;20.85;;;3.50;99.90;;;;;;5028033;28;20037;-55
2021/12/06 00:41:45;;;;;;;38.20;20.40;;;3.50;99.90;;;;;;5021342;28;20494;-55
2021/12/06 00:44:11;;;;;;;37.67;20.25;;;3.40;99.90;;;;;;5023174;28;20506;-54
2021/12/06 00:46:38;;;;;;;33.60;19.13;;;3.40;99.90;;;;;;5026639;28;20124;-52
2021/12/06 00:49:08;;;;;;;37.90;20.17;;;3.40;99.90;;;;;;5029959;28;20409;-55
2021/12/06 00:51:34;;;;;;;37.72;20.58;;;3.30;99.90;;;;;;5030052;28;20029;-55
2021/12/06 00:53:59;;;;;;;38.30;20.60;;;3.30;99.90;;;;;;5024191;28;20042;-55
2021/12/06 00:56:25;;;;;;;37.03;20.00;;;3.30;99.90;;;;;;5022169;28;20425;-55
2021/12/06 00:58:50;;;;;;;38.25;21.00;;;3.30;99.90;;;;;;5022494;28;20045;-53
2021/12/06 01:01:16;;;;;;;37.33;19.63;;;3.30;99.90;;;;;;5027612;28;20042;-52
2021/12/06 01:03:43;;;;;;;37.55;20.48;;;3.30;99.90;;;;;;5029771;28;20034;-52
2021/12/06 01:06:10;;;;;;;36.90;20.70;;;3.30;99.90;;;;;;5012700;28;20052;-52
2021/12/06 01:08:36;;;;;;;35.53;19.95;;;3.30;99.90;;;;;;5006656;28;20034;-55
2021/12/06 01:11:03;;;;;;;41.17;21.55;;;3.30;99.90;;;;;;5023197;28;20045;-53
2021/12/06 01:13:29;;;;;;;36.40;20.80;;;3.30;99.90;;;;;;5023726;28;20418;-55
2021/12/06 01:15:55;;;;;;;35.92;20.15;;;3.30;99.90;;;;;;5024419;28;20046;-52
2021/12/06 01:18:21;;;;;;;38.25;19.85;;;3.30;99.90;;;;;;5027917;28;20064;-53
2021/12/06 01:41:37;;;;;;;38.45;20.42;;;3.20;99.90;;;;;;5030137;28;20034;-53
2021/12/06 01:44:28;;;;;;;41.63;21.83;;;3.20;99.90;;;;;;5025220;28;20042;-52
2021/12/06 01:47:02;;;;;;;40.45;21.98;;;3.20;99.90;;;;;;5027260;28;20109;-56
2021/12/06 01:49:31;;;;;;;44.97;22.65;;;3.20;99.90;;;;;;5029595;28;20504;-54
2021/12/06 01:51:59;;;;;;;48.08;24.58;;;3.20;99.90;;;;;;5150448;22;20052;-50
2021/12/06 01:54:25;;;;;;;46.60;24.33;;;3.20;99.90;;;;;;5047580;28;20056;-50
2021/12/06 01:56:52;;;;;;;44.70;23.85;;;3.20;99.90;;;;;;5043610;28;20037;-51
2021/12/06 01:59:20;;;;;;;45.42;24.27;;;3.20;99.90;;;;;;5053333;28;20045;-52
2021/12/06 02:01:46;;;;;;;40.53;21.30;;;3.20;99.90;;;;;;5041254;28;20068;-49
2021/12/06 02:04:11;;;;;;;43.53;24.25;;;3.30;99.90;;;;;;5009571;28;20038;-50
2021/12/06 02:06:39;;;;;;;40.13;21.45;;;3.30;99.90;;;;;;5029013;28;20516;-48
2021/12/06 02:09:08;;;;;;;47.45;24.48;;;3.20;99.90;;;;;;5008301;28;20402;-48
2021/12/06 02:11:36;;;;;;;47.08;24.95;;;3.20;99.90;;;;;;5005419;28;20045;-48
2021/12/06 02:14:16;;;;;;;50.13;25.10;;;3.30;99.90;;;;;;5031037;28;20131;-51
2021/12/06 02:16:58;;;;;;;48.42;24.58;;;3.20;99.90;;;;;;5011810;28;20033;-50
2021/12/06 02:19:30;;;;;;;46.83;23.83;;;3.20;99.90;;;;;;5026106;28;20179;-52
2021/12/06 02:21:56;;;;;;;45.72;23.98;;;3.20;99.90;;;;;;5029319;28;20047;-48
2021/12/06 02:24:23;;;;;;;47.25;24.60;;;3.10;99.90;;;;;;5027789;28;20033;-48
2021/12/06 02:26:51;;;;;;;48.95;24.38;;;3.10;99.90;;;;;;5019842;28;20034;-50
2021/12/06 02:29:16;;;;;;;49.88;24.98;;;3.10;99.90;;;;;;5025544;28;20061;-49
2021/12/06 02:31:42;;;;;;;49.80;24.02;;;3.20;99.90;;;;;;5031149;28;20403;-49
2021/12/06 02:34:08;;;;;;;46.95;24.80;;;3.20;99.90;;;;;;5026734;28;20041;-49
2021/12/06 02:36:33;;;;;;;46.25;22.63;;;3.10;99.90;;;;;;5031754;28;20029;-48
2021/12/06 02:38:59;;;;;;;51.53;25.08;;;3.10;99.90;;;;;;5031585;28;20045;-50
2021/12/06 02:41:25;;;;;;;47.53;23.13;;;3.20;99.90;;;;;;5020025;28;20420;-49
2021/12/06 02:43:53;;;;;;;44.15;22.40;;;3.20;99.90;;;;;;5030310;28;20042;-50
2021/12/06 02:46:19;;;;;;;47.95;23.98;;;3.30;99.90;;;;;;5031498;28;20405;-50
2021/12/06 02:48:45;;;;;;;47.38;24.27;;;3.20;99.90;;;;;;5024127;28;20520;-51
2021/12/06 02:51:13;;;;;;;45.47;23.90;;;3.10;99.90;;;;;;5025283;28;20037;-50
2021/12/06 02:53:39;;;;;;;48.20;23.25;;;3.10;99.90;;;;;;5031304;28;20129;-52
2021/12/06 02:56:18;;;;;;;43.45;22.00;;;3.10;99.90;;;;;;5031684;28;20049;-49
2021/12/06 03:01:17;;;;;;;47.85;23.30;;;3.20;99.90;;;;;;5023185;28;20115;-49
2021/12/06 03:03:43;;;;;;;43.45;19.98;;;3.20;99.90;;;;;;5030015;28;20045;-49
2021/12/06 03:06:09;;;;;;;43.53;21.92;;;3.20;99.90;;;;;;5013689;28;20045;-48
2021/12/06 03:08:45;;;;;;;40.78;19.95;;;3.20;99.90;;;;;;5024523;28;20143;-47
2021/12/06 03:12:01;;;;;;;40.80;19.20;;;3.10;99.90;;;;;;5024104;28;20034;-49
2021/12/06 03:14:32;;;;;;;43.92;20.88;;;3.20;99.90;;;;;;4990281;28;20056;-47
2021/12/06 03:17:01;;;;;;;43.00;21.02;;;3.20;99.90;;;;;;4992524;28;20037;-48
2021/12/06 03:19:27;;;;;;;44.70;21.08;;;3.20;99.90;;;;;;4987436;28;20029;-47
2021/12/06 03:21:53;;;;;;;45.20;21.25;;;3.20;99.90;;;;;;5019159;28;20078;-47
2021/12/06 03:24:20;;;;;;;43.35;21.98;;;3.20;99.90;;;;;;4995588;28;20086;-50
2021/12/06 03:26:47;;;;;;;39.60;18.40;;;3.20;99.90;;;;;;4991581;28;20045;-50
2021/12/06 03:29:13;;;;;;;44.33;20.33;;;3.20;99.90;;;;;;5031419;28;20473;-47
2021/12/06 03:31:40;;;;;;;42.97;21.63;;;3.20;99.90;;;;;;5020934;28;20083;-48
2021/12/06 03:34:07;;;;;;;39.15;19.88;;;3.20;99.90;;;;;;5026933;28;20090;-47
2021/12/06 03:36:35;;;;;;;44.05;22.98;;;3.20;99.90;;;;;;5002933;28;20041;-50
2021/12/06 03:39:04;;;;;;;46.80;22.40;;;3.20;99.90;;;;;;5005397;28;20045;-47
2021/12/06 03:41:30;;;;;;;44.00;21.30;;;3.20;99.90;;;;;;5022996;28;20056;-47
2021/12/06 03:43:58;;;;;;;43.90;22.00;;;3.30;99.90;;;;;;5026839;28;20033;-49
2021/12/06 03:46:24;;;;;;;43.92;21.77;;;3.20;99.90;;;;;;4995174;28;20041;-50
2021/12/06 03:48:50;;;;;;;52.85;23.35;;;3.20;99.90;;;;;;5000852;28;20073;-50
2021/12/06 03:51:16;;;;;;;49.08;22.45;;;3.20;99.90;;;;;;5023310;28;20029;-50
2021/12/06 03:53:42;;;;;;;43.60;20.25;;;3.10;99.90;;;;;;5029129;28;20036;-49
2021/12/06 03:56:08;;;;;;;47.42;22.33;;;3.20;99.90;;;;;;5029480;28;20068;-50
2021/12/06 03:58:35;;;;;;;48.45;21.42;;;3.20;99.90;;;;;;5029002;28;20037;-50
2021/12/06 04:01:02;;;;;;;55.58;23.33;;;3.20;99.90;;;;;;5025298;28;20033;-48
2021/12/06 04:03:30;;;;;;;49.00;21.52;;;3.20;99.90;;;;;;4994181;28;20029;-51
2021/12/06 04:05:56;;;;;;;55.20;23.38;;;3.20;99.90;;;;;;5006061;28;20113;-51
2021/12/06 04:08:22;;;;;;;53.53;22.83;;;3.20;99.90;;;;;;5027573;28;20093;-47
2021/12/06 04:10:48;;;;;;;55.60;24.00;;;3.20;99.90;;;;;;4996631;28;20037;-51
2021/12/06 04:13:15;;;;;;;64.00;24.98;;;3.20;99.90;;;;;;4989834;28;20567;-49
2021/12/06 04:15:44;;;;;;;53.88;20.98;;;3.20;99.90;;;;;;5025696;28;20033;-48
2021/12/06 04:18:09;;;;;;;61.50;23.67;;;3.20;99.90;;;;;;5028087;28;20473;-49
2021/12/06 04:20:36;;;;;;;57.65;24.90;;;3.20;99.90;;;;;;5026983;28;20080;-48
2021/12/06 04:23:05;;;;;;;58.13;23.90;;;3.20;99.90;;;;;;5020770;28;20448;-51
2021/12/06 04:25:31;;;;;;;54.88;23.75;;;3.20;99.90;;;;;;5026070;28;20482;-51
2021/12/06 04:28:03;;;;;;;58.72;23.27;;;3.20;99.90;;;;;;5022280;28;20037;-49
2021/12/06 04:30:29;;;;;;;65.60;26.45;;;3.20;99.90;;;;;;5029948;28;20045;-47
2021/12/06 04:32:55;;;;;;;67.45;25.85;;;3.10;99.90;;;;;;5007319;28;20064;-50
2021/12/06 04:35:22;;;;;;;60.90;24.70;;;3.10;99.90;;;;;;5024834;28;20509;-47
2021/12/06 04:37:48;;;;;;;66.07;26.48;;;3.10;99.90;;;;;;5008542;28;20041;-48
2021/12/06 04:40:15;;;;;;;73.95;25.48;;;3.10;99.90;;;;;;5030574;28;20195;-49
2021/12/06 04:42:41;;;;;;;64.10;24.10;;;3.30;99.90;;;;;;5030092;28;20033;-47
2021/12/06 04:45:08;;;;;;;75.20;25.58;;;3.30;99.90;;;;;;5012677;28;20041;-50
2021/12/06 04:47:35;;;;;;;67.43;25.77;;;3.20;99.90;;;;;;5030020;28;20509;-49
2021/12/06 04:50:02;;;;;;;72.68;25.98;;;3.60;99.90;;;;;;5012342;28;20719;-47
2021/12/06 04:52:28;;;;;;;64.13;24.73;;;3.20;99.90;;;;;;4987676;28;20064;-47
2021/12/06 04:54:58;;;;;;;71.57;25.70;;;3.20;99.90;;;;;;5030722;28;20502;-50
2021/12/06 04:57:27;;;;;;;69.28;25.80;;;3.20;99.90;;;;;;5026664;28;20050;-47
2021/12/06 05:00:12;;;;;;;88.85;27.00;;;3.20;99.90;;;;;;5005724;28;20045;-48
2021/12/06 05:02:39;;;;;;;51.55;19.73;;;3.20;99.90;;;;;;5033057;28;20437;-48
2021/12/06 05:05:12;;;;;;;66.95;24.60;;;3.20;99.90;;;;;;5026896;28;20046;-48
2021/12/06 05:07:43;;;;;;;85.60;27.00;;;3.40;99.90;;;;;;5031915;28;20540;-47
2021/12/06 05:10:10;;;;;;;80.88;27.73;;;3.30;99.90;;;;;;5032355;28;20034;-47
2021/12/06 05:12:36;;;;;;;89.72;27.75;;;3.20;99.90;;;;;;5025330;28;20052;-47
2021/12/06 05:15:04;;;;;;;78.40;27.33;;;3.20;99.90;;;;;;5025455;28;20041;-47
2021/12/06 05:17:30;;;;;;;76.45;26.58;;;3.20;99.90;;;;;;5011153;28;20440;-47
2021/12/06 05:19:56;;;;;;;71.90;26.08;;;3.20;99.90;;;;;;5020297;28;20041;-48
2021/12/06 05:22:22;;;;;;;71.38;27.00;;;3.20;99.90;;;;;;5007699;28;20159;-47
2021/12/06 05:24:48;;;;;;;71.75;26.65;;;3.30;99.90;;;;;;5034056;28;20608;-47
2021/12/06 05:27:14;;;;;;;69.50;26.55;;;3.30;99.90;;;;;;5029262;28;20124;-49
2021/12/06 05:29:44;;;;;;;77.60;27.50;;;3.30;99.90;;;;;;5031880;28;20061;-47
2021/12/06 05:32:11;;;;;;;69.22;24.80;;;3.30;99.90;;;;;;4987920;28;20511;-47
2021/12/06 05:34:40;;;;;;;73.15;28.17;;;3.30;99.90;;;;;;4987208;28;20040;-49
2021/12/06 05:37:09;;;;;;;79.93;27.55;;;3.30;99.90;;;;;;5025274;28;20037;-47
2021/12/06 05:39:34;;;;;;;75.07;26.27;;;3.30;99.90;;;;;;5028605;28;20046;-50
2021/12/06 05:42:03;;;;;;;85.93;28.75;;;3.30;99.90;;;;;;5024345;28;20040;-48
2021/12/06 05:44:30;;;;;;;84.32;28.50;;;3.30;99.90;;;;;;5026968;28;20489;-49
2021/12/06 05:46:56;;;;;;;80.20;28.98;;;3.30;99.90;;;;;;5012298;28;20045;-49
2021/12/06 05:49:23;;;;;;;91.57;30.13;;;3.30;99.90;;;;;;5033036;28;20037;-47
2021/12/06 05:51:49;;;;;;;97.32;31.83;;;3.50;99.90;;;;;;5024808;28;20033;-48
2021/12/06 05:54:15;;;;;;;88.75;29.90;;;3.30;99.90;;;;;;5023883;28;20054;-47
2021/12/06 05:56:41;;;;;;;90.97;29.45;;;3.30;99.90;;;;;;4991338;28;20033;-47
2021/12/06 05:59:07;;;;;;;90.72;29.98;;;3.30;99.90;;;;;;5027013;28;20103;-47
2021/12/06 06:01:33;;;;;;;84.20;30.27;;;3.40;99.90;;;;;;5029946;28;20037;-50
2021/12/06 06:04:01;;;;;;;86.40;29.40;;;3.40;99.90;;;;;;5027375;28;20037;-47
2021/12/06 06:06:30;;;;;;;76.05;26.85;;;3.50;99.90;;;;;;5011654;28;20044;-51
2021/12/06 06:08:56;;;;;;;79.10;25.95;;;3.50;99.90;;;;;;5012394;28;20040;-51
2021/12/06 06:11:22;;;;;;;82.95;28.48;;;3.50;99.90;;;;;;5011279;28;20124;-47
2021/12/06 06:13:47;;;;;;;86.53;30.63;;;3.50;99.90;;;;;;5021960;28;20037;-47
2021/12/06 06:16:17;;;;;;;88.15;29.58;;;3.50;99.90;;;;;;5024296;28;20033;-48
2021/12/06 06:18:43;;;;;;;89.93;31.60;;;3.50;99.90;;;;;;5028863;28;20040;-49
2021/12/06 06:21:09;;;;;;;75.03;26.80;;;3.40;99.90;;;;;;5021131;28;20128;-51
2021/12/06 06:23:35;;;;;;;72.13;26.73;;;3.40;99.90;;;;;;5024990;28;20571;-51
2021/12/06 06:26:00;;;;;;;84.18;28.80;;;3.50;99.90;;;;;;5025625;28;20037;-51
2021/12/06 06:28:26;;;;;;;82.80;29.80;;;3.40;99.90;;;;;;5028907;28;20076;-48
2021/12/06 06:30:52;;;;;;;73.53;28.17;;;3.40;99.90;;;;;;5009143;28;20034;-47
2021/12/06 06:33:17;;;;;;;67.88;25.55;;;3.40;99.90;;;;;;5021227;28;20111;-50
2021/12/06 06:35:43;;;;;;;67.68;27.23;;;3.40;99.90;;;;;;5022849;28;20034;-50
2021/12/06 06:38:08;;;;;;;79.03;27.73;;;3.40;99.90;;;;;;5017769;28;20034;-49
2021/12/06 06:40:34;;;;;;;75.00;27.25;;;3.40;99.90;;;;;;5026067;28;20552;-49
2021/12/06 06:43:00;;;;;;;68.75;26.50;;;3.30;99.90;;;;;;5020307;28;20084;-48
2021/12/06 06:45:26;;;;;;;78.97;28.23;;;3.30;99.90;;;;;;5024407;28;20038;-51
2021/12/06 06:47:51;;;;;;;78.28;28.85;;;3.20;99.90;;;;;;5023186;28;20037;-48
2021/12/06 06:50:18;;;;;;;77.65;28.98;;;3.20;99.90;;;;;;5026877;28;20029;-51
2021/12/06 06:52:45;;;;;;;70.68;28.17;;;3.30;99.90;;;;;;5029527;28;20045;-47
2021/12/06 06:55:11;;;;;;;74.75;29.20;;;3.30;99.90;;;;;;5021971;28;20053;-47
2021/12/06 06:57:38;;;;;;;80.25;29.13;;;3.30;99.90;;;;;;5022996;28;20040;-47
2021/12/06 07:00:07;;;;;;;65.30;27.33;;;3.20;99.90;;;;;;5003534;28;20061;-48
2021/12/06 07:02:33;;;;;;;72.68;29.10;;;3.20;99.90;;;;;;5024461;28;20045;-48
2021/12/06 07:04:58;;;;;;;72.47;27.27;;;3.30;99.90;;;;;;5003215;28;20107;-50
2021/12/06 07:07:24;;;;;;;92.18;34.75;;;3.30;99.90;;;;;;5021357;28;20030;-51
2021/12/06 07:09:50;;;;;;;79.03;31.85;;;3.30;99.90;;;;;;5023773;28;20453;-50
2021/12/06 07:12:18;;;;;;;71.93;28.70;;;3.20;99.90;;;;;;5022562;28;20492;-47
2021/12/06 07:14:46;;;;;;;66.45;27.02;;;3.20;99.90;;;;;;5007817;28;20038;-48
2021/12/06 07:17:14;;;;;;;87.43;31.25;;;3.10;99.90;;;;;;5023114;28;20037;-52
2021/12/06 07:19:40;;;;;;;84.65;35.70;;;3.20;99.90;;;;;;5001624;28;20404;-51
2021/12/06 07:22:07;;;;;;;65.90;27.10;;;3.20;99.90;;;;;;5023052;28;20083;-50
2021/12/06 07:24:32;;;;;;;66.57;25.55;;;3.10;99.90;;;;;;5019175;28;20478;-50
2021/12/06 07:26:58;;;;;;;68.45;29.30;;;3.10;99.90;;;;;;5022373;28;20041;-50
2021/12/06 07:29:24;;;;;;;59.45;24.58;;;3.10;99.90;;;;;;5016708;28;20045;-51
2021/12/06 07:31:51;;;;;;;62.03;24.73;;;3.10;99.90;;;;;;5017766;28;20457;-49
2021/12/06 07:34:16;;;;;;;70.05;27.45;;;3.10;99.90;;;;;;5023500;28;20049;-51
2021/12/06 07:36:42;;;;;;;65.07;27.85;;;3.10;99.90;;;;;;5021528;28;20037;-48
2021/12/06 07:39:07;;;;;;;59.13;24.63;;;3.10;99.90;;;;;;5023991;28;20124;-47
2021/12/06 07:41:33;;;;;;;58.40;25.80;;;3.10;99.90;;;;;;4999906;28;20065;-50
2021/12/06 07:44:02;;;;;;;63.28;24.63;;;3.10;99.90;;;;;;4999443;28;20034;-50
2021/12/06 07:46:27;;;;;;;61.97;24.65;;;3.10;99.90;;;;;;5028362;28;20079;-48
2021/12/06 07:48:53;;;;;;;68.00;26.48;;;3.10;99.90;;;;;;5030426;28;20077;-51
2021/12/06 07:51:24;;;;;;;68.22;25.98;;;3.10;99.90;;;;;;5029459;28;20520;-50
2021/12/06 07:53:51;;;;;;;63.42;26.08;;;3.10;99.90;;;;;;4991899;28;20514;-50
2021/12/06 07:56:18;;;;;;;66.90;26.77;;;3.00;99.90;;;;;;5030603;28;20033;-50
2021/12/06 07:58:44;;;;;;;71.95;26.83;;;3.00;99.90;;;;;;5009093;28;20033;-49
2021/12/06 08:01:10;;;;;;;63.17;27.70;;;3.00;99.90;;;;;;5007706;28;20042;-50
2021/12/06 08:03:39;;;;;;;62.95;26.10;;;3.00;99.90;;;;;;5008604;28;20486;-49
2021/12/06 08:06:05;;;;;;;74.18;27.98;;;3.00;99.90;;;;;;5024191;28;20030;-49
2021/12/06 08:08:32;;;;;;;71.30;28.83;;;3.00;99.90;;;;;;5029306;28;20040;-49
2021/12/06 08:11:06;;;;;;;70.72;27.33;;;3.10;99.90;;;;;;5029332;28;20116;-49
2021/12/06 08:13:34;;;;;;;73.43;30.60;;;3.10;99.90;;;;;;5023277;28;20041;-50
2021/12/06 08:16:04;;;;;;;79.07;31.17;;;3.10;99.90;;;;;;5015222;28;20037;-52
2021/12/06 08:18:29;;;;;;;79.28;33.33;;;3.20;99.90;;;;;;5023678;28;20421;-53
2021/12/06 08:20:56;;;;;;;74.93;28.80;;;3.20;99.90;;;;;;5026397;28;20049;-52
2021/12/06 08:23:23;;;;;;;77.00;30.90;;;3.30;99.90;;;;;;5016518;28;20100;-49
2021/12/06 08:25:49;;;;;;;75.10;27.55;;;3.20;99.90;;;;;;5024281;28;20389;-50
2021/12/06 08:28:16;;;;;;;85.45;33.25;;;3.20;99.90;;;;;;5028358;28;20038;-49
2021/12/06 08:30:43;;;;;;;90.13;33.67;;;3.20;99.90;;;;;;5018756;28;20034;-50
2021/12/06 08:33:09;;;;;;;88.50;32.95;;;3.10;99.90;;;;;;4991808;28;20103;-50
2021/12/06 08:35:38;;;;;;;81.07;31.27;;;3.00;99.90;;;;;;5011773;28;20092;-52
2021/12/06 08:38:05;;;;;;;74.57;30.38;;;3.10;99.90;;;;;;4989102;28;20049;-51
2021/12/06 08:40:32;;;;;;;60.45;25.80;;;3.00;99.90;;;;;;5025280;28;20038;-52
2021/12/06 08:42:58;;;;;;;73.65;30.63;;;3.10;99.90;;;;;;5032554;28;20394;-52
2021/12/06 08:45:26;;;;;;;62.88;27.05;;;3.10;99.90;;;;;;5034117;28;20524;-48
2021/12/06 08:47:52;;;;;;;74.07;29.55;;;3.00;99.90;;;;;;5006859;28;20038;-53
2021/12/06 08:50:22;;;;;;;68.30;27.20;;;3.00;99.90;;;;;;5022065;28;20160;-53
2021/12/06 08:52:49;;;;;;;54.13;24.00;;;3.00;99.90;;;;;;5008347;28;20068;-51
2021/12/06 08:55:16;;;;;;;55.67;23.75;;;3.00;99.90;;;;;;5028771;28;20598;-52
2021/12/06 08:57:42;;;;;;;58.70;24.25;;;3.00;99.90;;;;;;5028068;28;20030;-48
2021/12/06 09:00:11;;;;;;;60.42;23.35;;;2.90;99.90;;;;;;5033916;28;20508;-49
2021/12/06 09:02:38;;;;;;;55.70;22.15;;;2.90;99.90;;;;;;5033062;28;20041;-50
2021/12/06 09:05:05;;;;;;;50.63;22.38;;;2.90;99.90;;;;;;5032508;28;20033;-50
2021/12/06 09:07:31;;;;;;;47.38;23.05;;;2.90;99.90;;;;;;5021789;28;20124;-52
2021/12/06 09:09:57;;;;;;;53.58;22.15;;;3.00;99.90;;;;;;5029766;28;20120;-52
2021/12/06 09:12:26;;;;;;;47.80;20.92;;;3.00;99.90;;;;;;5030161;28;20049;-49
2021/12/06 09:14:53;;;;;;;45.78;20.20;;;3.00;99.90;;;;;;5024213;28;20478;-49
2021/12/06 09:17:19;;;;;;;42.95;19.27;;;3.00;99.90;;;;;;5029763;28;20076;-49
2021/12/06 09:19:45;;;;;;;40.38;18.77;;;3.00;99.90;;;;;;5018658;28;20306;-52
2021/12/06 09:22:11;;;;;;;39.83;19.42;;;3.00;99.90;;;;;;5030759;28;20108;-49
2021/12/06 09:24:38;;;;;;;40.22;19.55;;;2.90;99.90;;;;;;5027031;28;20037;-49
2021/12/06 09:27:05;;;;;;;46.25;19.40;;;2.90;99.90;;;;;;5009144;28;20489;-48
2021/12/06 09:29:33;;;;;;;41.22;18.05;;;2.90;99.90;;;;;;5015770;28;20074;-52
2021/12/06 09:32:00;;;;;;;40.83;18.48;;;2.90;99.90;;;;;;5006623;28;20065;-48
2021/12/06 09:34:28;;;;;;;40.53;18.10;;;2.90;99.90;;;;;;5029355;28;20095;-51
2021/12/06 09:36:55;;;;;;;41.33;18.17;;;2.90;99.90;;;;;;5027344;28;20068;-48
2021/12/06 09:43:05;;;;;;;35.67;18.00;;;3.10;99.90;;;;;;5037582;28;20053;-49
2021/12/06 09:45:32;;;;;;;41.55;18.38;;;3.10;99.90;;;;;;5032635;28;20116;-49
2021/12/06 09:48:01;;;;;;;42.05;19.38;;;3.00;99.90;;;;;;5024564;28;20046;-52
2021/12/06 09:50:35;;;;;;;36.67;18.25;;;3.00;99.90;;;;;;5028923;28;20041;-49
2021/12/06 09:53:05;;;;;;;39.25;17.08;;;3.10;99.90;;;;;;5026997;28;20052;-50
2021/12/06 09:55:32;;;;;;;41.88;18.15;;;3.10;99.90;;;;;;5027837;28;20079;-49
2021/12/06 09:57:59;;;;;;;38.03;18.25;;;3.10;99.90;;;;;;5029900;28;20343;-48
2021/12/06 10:00:30;;;;;;;41.75;18.25;;;3.10;99.90;;;;;;5030414;28;20050;-50
2021/12/06 10:02:55;;;;;;;39.55;18.80;;;3.00;99.90;;;;;;5026025;28;20053;-48
2021/12/06 10:05:29;;;;;;;36.70;17.77;;;3.10;99.90;;;;;;5014248;28;20037;-48
2021/12/06 10:07:56;;;;;;;44.17;18.88;;;3.10;99.90;;;;;;5010722;28;20045;-50
2021/12/06 10:10:23;;;;;;;42.55;20.75;;;3.10;99.90;;;;;;5027149;28;20104;-48
2021/12/06 10:12:52;;;;;;;44.47;18.65;;;3.10;99.90;;;;;;5029013;28;20045;-48
2021/12/06 10:15:20;;;;;;;38.78;16.90;;;3.10;99.90;;;;;;5013895;28;20041;-48
2021/12/06 10:17:46;;;;;;;41.47;18.05;;;3.10;99.90;;;;;;5020514;28;20465;-48
2021/12/06 10:20:12;;;;;;;47.28;20.15;;;3.10;99.90;;;;;;5028192;28;20041;-48
2021/12/06 10:22:38;;;;;;;47.05;19.92;;;3.10;99.90;;;;;;5023513;28;20046;-50
2021/12/06 10:25:05;;;;;;;41.83;19.42;;;3.00;99.90;;;;;;4996347;28;20500;-52
2021/12/06 10:27:32;;;;;;;45.15;18.17;;;3.00;99.90;;;;;;5032498;28;20049;-50
2021/12/06 10:30:03;;;;;;;44.83;19.40;;;3.10;99.90;;;;;;5031394;28;20112;-50
2021/12/06 10:32:31;;;;;;;51.08;21.40;;;3.10;99.90;;;;;;5011918;28;20041;-48
2021/12/06 10:35:02;;;;;;;47.38;19.60;;;3.20;99.90;;;;;;5019489;28;20046;-49
2021/12/06 10:37:35;;;;;;;50.28;21.15;;;3.20;99.90;;;;;;5022550;28;20045;-50
2021/12/06 10:40:05;;;;;;;57.50;21.92;;;3.20;99.90;;;;;;5028667;28;20255;-48
2021/12/06 10:42:38;;;;;;;50.38;18.88;;;3.10;99.90;;;;;;5025738;28;20041;-52
2021/12/06 10:45:11;;;;;;;53.63;20.75;;;3.20;99.90;;;;;;5009961;28;20045;-53
2021/12/06 10:47:37;;;;;;;58.63;21.73;;;3.20;99.90;;;;;;5023406;28;20036;-49
2021/12/06 10:50:25;;;;;;;55.38;22.00;;;3.20;99.90;;;;;;5026795;28;20163;-48
2021/12/06 10:52:55;;;;;;;59.25;21.75;;;3.10;99.90;;;;;;5022922;28;20128;-49
2021/12/06 10:55:23;;;;;;;52.17;21.60;;;3.20;99.90;;;;;;5011066;28;20044;-51
2021/12/06 10:57:56;;;;;;;45.53;19.63;;;3.20;99.90;;;;;;4991346;28;20050;-49
2021/12/06 11:00:42;;;;;;;49.42;18.85;;;3.20;99.90;;;;;;5009900;28;20050;-51
2021/12/06 11:03:24;;;;;;;41.05;17.15;;;3.20;99.90;;;;;;5025555;28;20072;-48
2021/12/06 11:06:02;;;;;;;35.90;16.03;;;3.30;99.90;;;;;;5023055;28;20509;-49
2021/12/06 11:08:28;;;;;;;39.05;15.93;;;3.30;99.90;;;;;;5026411;28;20044;-48
2021/12/06 11:11:00;;;;;;;36.78;16.38;;;3.30;99.90;;;;;;5025687;28;20505;-52
2021/12/06 11:13:29;;;;;;;37.17;15.27;;;3.30;99.90;;;;;;5027540;28;20493;-53
2021/12/06 11:15:59;;;;;;;34.22;15.02;;;3.30;99.90;;;;;;5024983;28;20067;-50
2021/12/06 11:18:35;;;;;;;33.65;15.52;;;3.30;99.90;;;;;;5028626;28;20040;-50
2021/12/06 11:21:03;;;;;;;39.58;17.50;;;3.30;99.90;;;;;;5007164;28;20040;-49
2021/12/06 11:23:28;;;;;;;37.75;16.50;;;3.30;99.90;;;;;;5022885;28;20049;-50
2021/12/06 11:26:02;;;;;;;39.20;16.05;;;3.30;99.90;;;;;;5021235;28;20042;-50
2021/12/06 11:28:32;;;;;;;34.28;16.05;;;3.40;99.90;;;;;;5021036;28;20038;-49
2021/12/06 11:31:06;;;;;;;41.72;17.73;;;3.30;99.90;;;;;;5022846;28;21357;-48
2021/12/06 11:33:34;;;;;;;41.80;18.50;;;3.40;99.90;;;;;;5024375;28;20081;-49
2021/12/06 11:36:02;;;;;;;45.90;18.65;;;3.40;99.90;;;;;;5022187;28;20041;-54
2021/12/06 11:38:30;;;;;;;48.53;17.77;;;3.30;99.90;;;;;;5006904;28;20488;-53
2021/12/06 11:40:58;;;;;;;48.60;19.85;;;3.30;99.90;;;;;;5017102;28;20044;-54
2021/12/06 11:43:25;;;;;;;49.58;19.70;;;3.30;99.90;;;;;;5022672;28;20054;-53
2021/12/06 11:45:55;;;;;;;47.65;20.08;;;3.30;99.90;;;;;;5020198;28;20038;-54
2021/12/06 11:48:32;;;;;;;48.92;21.63;;;3.40;99.90;;;;;;5015249;28;20272;-54
2021/12/06 11:51:01;;;;;;;58.95;21.75;;;3.30;99.90;;;;;;5021433;28;20394;-54
2021/12/06 11:53:30;;;;;;;61.75;24.05;;;3.30;99.90;;;;;;4997745;28;20116;-51
2021/12/06 11:55:59;;;;;;;59.45;23.98;;;3.30;99.90;;;;;;5020791;28;20111;-51
2021/12/06 11:58:27;;;;;;;56.92;22.30;;;3.30;99.90;;;;;;5018712;28;20140;-50
2021/12/06 12:01:13;;;;;;;55.75;22.90;;;3.40;99.90;;;;;;5015280;28;20077;-51
2021/12/06 12:03:41;;;;;;;62.67;25.35;;;3.40;99.90;;;;;;5016948;28;20065;-53
2021/12/06 12:06:29;;;;;;;63.05;24.42;;;3.40;99.90;;;;;;5019619;28;20057;-54
2021/12/06 12:09:07;;;;;;;60.97;25.13;;;3.30;99.90;;;;;;5007857;28;20033;-50
2021/12/06 12:12:03;;;;;;;69.70;27.27;;;3.40;99.90;;;;;;5013437;28;20073;-53
2021/12/06 12:14:41;;;;;;;66.85;26.85;;;3.40;99.90;;;;;;5026663;28;20033;-50
2021/12/06 12:17:26;;;;;;;68.90;27.10;;;3.40;99.90;;;;;;5028453;28;20065;-51
2021/12/06 12:19:54;;;;;;;59.63;24.40;;;3.40;99.90;;;;;;5005605;28;20041;-54
2021/12/06 12:22:21;;;;;;;67.45;27.02;;;3.50;99.90;;;;;;5015556;28;20049;-51
2021/12/06 12:24:52;;;;;;;67.38;25.85;;;3.50;99.90;;;;;;5017394;28;20382;-52
2021/12/06 12:27:42;;;;;;;69.18;27.10;;;3.50;99.90;;;;;;5020719;28;20052;-51
2021/12/06 12:30:08;;;;;;;62.90;24.73;;;3.50;99.90;;;;;;5029280;28;20040;-53
2021/12/06 12:32:35;;;;;;;66.53;26.10;;;3.50;99.90;;;;;;5022694;28;20433;-50
2021/12/06 12:35:11;;;;;;;69.63;26.40;;;3.50;99.90;;;;;;5014616;28;20041;-50
2021/12/06 12:37:39;;;;;;;72.07;29.08;;;3.50;99.90;;;;;;5021650;28;20076;-51
2021/12/06 12:40:10;;;;;;;76.40;28.17;;;3.50;99.90;;;;;;5018040;28;20038;-52
2021/12/06 12:42:36;;;;;;;73.57;28.27;;;3.50;99.90;;;;;;5006715;28;20050;-54
2021/12/06 12:45:05;;;;;;;76.35;28.40;;;3.50;99.90;;;;;;4994978;28;20049;-53
2021/12/06 12:47:34;;;;;;;71.78;28.40;;;3.60;99.90;;;;;;5016669;28;20033;-51
2021/12/06 12:50:58;;;;;;;70.70;28.85;;;3.50;99.90;;;;;;5029410;28;20052;-51
2021/12/06 12:53:24;;;;;;;;;;;3.60;99.90;;;;;;5027115;28;20430;-49
2021/12/06 12:55:51;;;;;;;64.15;26.85;;;3.70;99.90;;;;;;5019015;28;19979;-51
2021/12/06 12:58:20;;;;;;;71.28;28.42;;;3.60;99.90;;;;;;5004185;28;20409;-52
2021/12/06 13:00:56;;;;;;;76.63;30.00;;;3.70;99.90;;;;;;5023767;28;20100;-50
2021/12/06 13:03:43;;;;;;;66.53;28.10;;;3.60;99.90;;;;;;5006015;28;20034;-50
2021/12/06 13:09:50;;;;;;;71.68;26.10;;;3.60;99.90;;;;;;5025946;28;20041;-49
2021/12/06 13:12:17;;;;;;;73.50;28.35;;;3.70;99.90;;;;;;5036596;23;20109;-49
2021/12/06 13:14:48;;;;;;;78.15;28.92;;;3.60;99.90;;;;;;5026619;28;20042;-49
2021/12/06 13:17:43;;;;;;;78.10;28.65;;;3.60;99.90;;;;;;5028888;28;20045;-52